Terminal Aerodrome Forecast
Issued by NWS Louisville, KY

Home | Current Version | Previous Version | Text Only | Print | Product List | Glossary On
Versions: 1 2 3 4 5 6 7 8 9 10 11 12 13
000
FTUS43 KLMK 251700
TAFLEX
TAF
KLEX 251720Z 2518/2618 VRB03KT P6SM SCT040
      TEMPO 2610/2613 5SM BR=

USA.gov is the U.S. government's official web portal to all federal, state and local government web resources and services.